createdAt,value
2022-08-14T00:01:10.291Z,67.26
2022-08-14T00:03:40.740Z,67.37
2022-08-14T00:06:14.092Z,67.26
2022-08-14T00:08:58.929Z,67.25
2022-08-14T00:11:28.874Z,67.36
2022-08-14T00:14:02.456Z,67.40
2022-08-14T00:16:41.627Z,67.37
2022-08-14T00:19:18.460Z,67.13
2022-08-14T00:21:50.235Z,67.21
2022-08-14T00:24:28.268Z,66.94
2022-08-14T00:27:02.204Z,67.07
2022-08-14T00:29:39.886Z,66.80
2022-08-14T00:32:52.129Z,66.68
2022-08-14T00:34:56.473Z,66.48
2022-08-14T00:37:23.439Z,65.87
2022-08-14T00:39:51.210Z,65.73
2022-08-14T00:42:55.331Z,65.53
2022-08-14T00:45:11.713Z,65.21
2022-08-14T00:47:44.653Z,65.08
2022-08-14T00:50:17.759Z,65.15
2022-08-14T00:52:46.388Z,65.26
2022-08-14T00:55:17.820Z,65.15
2022-08-14T00:57:44.569Z,65.25
2022-08-14T01:00:34.056Z,65.19
2022-08-14T01:03:01.154Z,65.20
2022-08-14T01:05:51.089Z,64.95
2022-08-14T01:08:51.607Z,64.43
2022-08-14T01:11:07.225Z,64.49
2022-08-14T01:13:43.025Z,64.54
2022-08-14T01:16:15.086Z,64.68
2022-08-14T01:19:01.340Z,64.69
2022-08-14T01:21:34.824Z,64.80
2022-08-14T01:24:22.914Z,64.85
2022-08-14T01:27:00.151Z,64.94
2022-08-14T01:29:51.230Z,64.90
2022-08-14T01:32:22.772Z,65.00
2022-08-14T01:35:18.818Z,65.00
2022-08-14T01:37:44.552Z,65.12
2022-08-14T01:40:15.477Z,65.27
2022-08-14T01:42:47.163Z,65.37
2022-08-14T01:45:17.931Z,65.57
2022-08-14T01:47:52.495Z,65.78
2022-08-14T01:50:30.818Z,65.73
2022-08-14T01:53:01.468Z,65.96
2022-08-14T01:55:32.258Z,65.96
2022-08-14T01:58:01.434Z,66.02
2022-08-14T02:00:44.857Z,66.17
2022-08-14T02:03:16.041Z,66.33
2022-08-14T02:05:42.816Z,66.37
2022-08-14T02:08:10.511Z,66.33
2022-08-14T02:10:46.266Z,66.46
2022-08-14T02:13:16.129Z,66.46
2022-08-14T02:15:44.029Z,66.52
2022-08-14T02:18:11.789Z,66.67
2022-08-14T02:20:39.975Z,66.74
2022-08-14T02:23:08.368Z,66.74
2022-08-14T02:25:36.573Z,66.93
2022-08-14T02:28:24.609Z,67.00
2022-08-14T02:30:52.417Z,67.12
2022-08-14T02:33:20.589Z,67.17
2022-08-14T02:35:53.220Z,67.28
2022-08-14T02:38:34.280Z,67.26
2022-08-14T02:41:02.154Z,67.43
2022-08-14T02:43:37.210Z,67.48
2022-08-14T02:46:13.017Z,67.56
2022-08-14T02:49:04.488Z,67.56
2022-08-14T02:51:30.448Z,67.66
2022-08-14T02:53:58.422Z,67.73
2022-08-14T02:56:30.396Z,67.90
2022-08-14T03:00:22.541Z,68.12
2022-08-14T03:02:58.464Z,68.15
2022-08-14T03:05:32.893Z,68.21
2022-08-14T03:08:07.803Z,68.22
2022-08-14T03:10:35.184Z,68.37
2022-08-14T03:13:04.462Z,68.44
2022-08-14T03:15:34.389Z,68.49
2022-08-14T03:18:01.219Z,68.66
2022-08-14T03:20:28.910Z,68.64
2022-08-14T03:23:00.312Z,68.64
2022-08-14T03:25:33.651Z,68.69
2022-08-14T03:28:08.429Z,68.74
2022-08-14T03:30:41.977Z,68.87
2022-08-14T03:33:11.586Z,68.87
2022-08-14T03:36:00.279Z,68.93
2022-08-14T03:39:15.880Z,69.01
2022-08-14T03:41:16.608Z,69.02
2022-08-14T03:43:47.507Z,69.01
2022-08-14T03:46:52.738Z,68.99
2022-08-14T03:49:24.094Z,68.99
2022-08-14T03:51:51.178Z,68.97
2022-08-14T03:54:20.794Z,69.18
2022-08-14T03:56:50.144Z,69.11
2022-08-14T03:59:17.838Z,69.02
2022-08-14T04:02:01.371Z,69.16
2022-08-14T04:04:30.604Z,69.12
2022-08-14T04:06:58.984Z,69.13
2022-08-14T04:09:27.070Z,69.20
2022-08-14T04:11:54.434Z,69.22
2022-08-14T04:14:23.625Z,69.23
2022-08-14T04:16:50.564Z,69.21
2022-08-14T04:19:19.388Z,69.27
2022-08-14T04:22:02.380Z,69.34
2022-08-14T04:24:37.429Z,69.45
2022-08-14T04:27:13.366Z,69.54
2022-08-14T04:29:45.135Z,69.62
2022-08-14T04:32:58.135Z,69.60
2022-08-14T04:35:07.526Z,69.48
2022-08-14T04:37:55.823Z,69.55
2022-08-14T04:40:41.211Z,69.25
2022-08-14T04:43:38.568Z,69.41
2022-08-14T04:46:08.059Z,69.48
2022-08-14T04:48:41.194Z,69.49
2022-08-14T04:51:15.286Z,69.39
2022-08-14T04:53:43.979Z,69.39
2022-08-14T04:56:31.626Z,69.55
2022-08-14T04:59:01.622Z,69.79
2022-08-14T05:01:39.627Z,69.85
2022-08-14T05:04:07.242Z,70.03
2022-08-14T05:06:35.015Z,70.07
2022-08-14T05:09:06.849Z,70.06
2022-08-14T05:11:36.722Z,70.16
2022-08-14T05:14:33.055Z,70.09
2022-08-14T05:16:52.188Z,70.10
2022-08-14T05:19:27.296Z,70.24
2022-08-14T05:22:17.836Z,70.18
2022-08-14T05:24:49.754Z,70.08
2022-08-14T05:27:22.912Z,70.07
2022-08-14T05:29:55.174Z,70.14
2022-08-14T05:32:26.944Z,70.20
2022-08-14T05:34:58.098Z,70.14
2022-08-14T05:37:27.254Z,70.07
2022-08-14T05:39:55.341Z,69.98
2022-08-14T05:42:26.934Z,69.76
2022-08-14T05:44:56.164Z,69.64
2022-08-14T05:47:23.644Z,69.59
2022-08-14T05:49:51.503Z,69.61
2022-08-14T05:52:18.965Z,69.52
2022-08-14T05:55:06.629Z,69.48
2022-08-14T05:57:33.402Z,69.60
2022-08-14T06:00:00.210Z,69.73
2022-08-14T06:02:27.076Z,69.68
2022-08-14T06:04:55.893Z,69.75
2022-08-14T06:07:25.578Z,69.87
2022-08-14T06:09:53.050Z,69.97
2022-08-14T06:12:55.065Z,69.64
2022-08-14T06:15:11.362Z,69.67
2022-08-14T06:17:58.630Z,69.72
2022-08-14T06:20:26.211Z,69.58
2022-08-14T06:22:53.116Z,69.36
2022-08-14T06:25:19.881Z,69.59
2022-08-14T06:27:48.482Z,69.71
2022-08-14T06:30:17.235Z,69.59
2022-08-14T06:32:44.465Z,69.53
2022-08-14T06:35:13.346Z,69.69
2022-08-14T06:37:46.986Z,69.86
2022-08-14T06:40:26.810Z,69.75
2022-08-14T06:43:05.658Z,69.66
2022-08-14T06:45:35.131Z,69.62
2022-08-14T06:48:06.261Z,69.49
2022-08-14T06:50:39.785Z,69.55
2022-08-14T06:53:07.427Z,69.75
2022-08-14T06:55:37.020Z,69.55
2022-08-14T06:58:24.745Z,69.55
2022-08-14T07:01:14.413Z,69.62
2022-08-14T07:04:00.928Z,69.21
2022-08-14T07:06:45.661Z,69.19
2022-08-14T07:09:18.139Z,69.37
2022-08-14T07:11:49.648Z,69.29
2022-08-14T07:14:16.388Z,69.16
2022-08-14T07:16:43.300Z,69.19
2022-08-14T07:19:11.517Z,69.04
2022-08-14T07:21:39.696Z,69.20
2022-08-14T07:24:09.616Z,69.36
2022-08-14T07:26:48.329Z,69.65
2022-08-14T07:29:15.129Z,69.28
2022-08-14T07:31:44.275Z,68.55
2022-08-14T07:34:11.446Z,68.30
2022-08-14T07:36:38.288Z,68.11
2022-08-14T07:39:27.740Z,67.69
2022-08-14T07:41:54.689Z,67.46
2022-08-14T07:44:32.312Z,67.27
2022-08-14T07:47:03.742Z,67.11
2022-08-14T07:49:31.828Z,67.31
2022-08-14T07:51:59.991Z,67.53
2022-08-14T07:54:30.047Z,67.37
2022-08-14T07:57:06.344Z,67.77
2022-08-14T07:59:40.816Z,67.85
2022-08-14T08:02:09.396Z,67.16
2022-08-14T08:04:46.777Z,66.39
2022-08-14T08:07:16.280Z,65.67
2022-08-14T08:09:46.016Z,64.77
2022-08-14T08:12:14.319Z,63.93
2022-08-14T08:14:55.473Z,63.83
2022-08-14T08:17:24.186Z,64.07
2022-08-14T08:19:51.413Z,63.48
2022-08-14T08:22:19.221Z,63.47
2022-08-14T08:24:46.349Z,63.19
2022-08-14T08:27:17.764Z,63.70
2022-08-14T08:30:09.984Z,62.97
2022-08-14T08:32:42.461Z,62.36
2022-08-14T08:35:21.150Z,61.43
2022-08-14T08:37:48.622Z,61.34
2022-08-14T08:40:36.242Z,61.36
2022-08-14T08:43:20.255Z,61.55
2022-08-14T08:46:04.198Z,59.89
2022-08-14T08:48:53.845Z,59.05
2022-08-14T08:51:34.220Z,59.03
2022-08-14T08:54:19.959Z,60.03
2022-08-14T08:56:53.083Z,60.52
2022-08-14T08:59:27.168Z,60.33
2022-08-14T09:02:00.421Z,59.61
2022-08-14T09:04:28.301Z,59.17
2022-08-14T09:07:09.270Z,59.06
2022-08-14T09:10:00.190Z,58.95
2022-08-14T09:12:32.631Z,58.49
2022-08-14T09:15:09.019Z,57.89
2022-08-14T09:17:41.416Z,58.10
2022-08-14T09:20:11.949Z,58.39
2022-08-14T09:22:47.365Z,58.28
2022-08-14T09:25:16.124Z,58.49
2022-08-14T09:27:42.962Z,58.46
2022-08-14T09:30:13.296Z,58.30
2022-08-14T09:33:11.759Z,58.44
2022-08-14T09:35:56.430Z,58.29
2022-08-14T09:38:35.719Z,57.89
2022-08-14T09:42:20.351Z,57.69
2022-08-14T09:44:42.891Z,57.00
2022-08-14T09:47:14.659Z,56.45
2022-08-14T09:49:52.095Z,57.01
2022-08-14T09:52:33.551Z,57.07
2022-08-14T09:55:01.133Z,57.03
2022-08-14T09:57:31.009Z,56.14
2022-08-14T09:59:58.431Z,56.03
2022-08-14T10:02:29.963Z,55.45
2022-08-14T10:05:10.092Z,55.72
2022-08-14T10:07:53.698Z,55.75
2022-08-14T10:10:35.931Z,55.60
2022-08-14T10:13:06.357Z,55.00
2022-08-14T10:15:38.012Z,55.39
2022-08-14T10:18:13.346Z,55.67
2022-08-14T10:21:09.524Z,54.74
2022-08-14T10:23:49.798Z,54.11
2022-08-14T10:26:23.064Z,54.30
2022-08-14T10:29:19.379Z,54.79
2022-08-14T10:31:57.060Z,55.54
2022-08-14T10:34:29.237Z,55.61
2022-08-14T10:37:14.847Z,55.84
2022-08-14T10:39:46.755Z,55.57
2022-08-14T10:42:36.499Z,55.92
2022-08-14T10:45:21.415Z,55.27
2022-08-14T10:48:08.642Z,55.28
2022-08-14T10:50:38.921Z,54.63
2022-08-14T10:53:07.984Z,54.71
2022-08-14T10:55:45.269Z,55.12
2022-08-14T10:58:14.078Z,54.62
2022-08-14T11:00:46.909Z,55.03
2022-08-14T11:03:19.715Z,54.76
2022-08-14T11:05:55.955Z,54.74
2022-08-14T11:08:33.049Z,54.35
2022-08-14T11:11:02.164Z,53.65
2022-08-14T11:13:30.803Z,53.85
2022-08-14T11:16:00.647Z,53.51
2022-08-14T11:18:30.273Z,53.11
2022-08-14T11:21:02.769Z,53.19
2022-08-14T11:23:37.801Z,53.51
2022-08-14T11:26:08.764Z,53.73
2022-08-14T11:28:47.187Z,54.08
2022-08-14T11:31:18.323Z,54.73
2022-08-14T11:33:48.826Z,54.77
2022-08-14T11:36:17.979Z,54.32
2022-08-14T11:38:46.193Z,54.05
2022-08-14T11:41:16.931Z,54.36
2022-08-14T11:43:55.799Z,53.86
2022-08-14T11:46:30.642Z,53.68
2022-08-14T11:49:05.206Z,53.71
2022-08-14T11:51:42.860Z,53.93
2022-08-14T11:54:20.217Z,53.85
2022-08-14T11:57:00.513Z,53.58
2022-08-14T11:59:33.298Z,53.40
2022-08-14T12:03:00.183Z,54.07
2022-08-14T12:05:04.228Z,53.84
2022-08-14T12:07:39.361Z,54.42
2022-08-14T12:10:26.560Z,53.85
2022-08-14T12:12:54.871Z,54.00
2022-08-14T12:15:32.658Z,53.33
2022-08-14T12:18:01.145Z,53.20
2022-08-14T12:20:37.351Z,53.73
2022-08-14T12:23:23.944Z,53.67
2022-08-14T12:26:32.130Z,53.16
2022-08-14T12:28:59.809Z,53.44
2022-08-14T12:31:27.515Z,53.04
2022-08-14T12:34:10.205Z,52.11
2022-08-14T12:36:37.779Z,51.63
2022-08-14T12:39:07.582Z,51.27
2022-08-14T12:41:39.803Z,51.75
2022-08-14T12:44:07.035Z,51.95
2022-08-14T12:46:43.653Z,52.11
2022-08-14T12:49:16.096Z,52.05
2022-08-14T12:51:43.728Z,52.99
2022-08-14T12:54:26.051Z,52.03
2022-08-14T12:57:10.309Z,51.81
2022-08-14T12:59:43.135Z,52.13
2022-08-14T13:02:21.630Z,52.08
2022-08-14T13:04:53.009Z,52.61
2022-08-14T13:07:20.978Z,53.11
2022-08-14T13:09:48.053Z,53.21
2022-08-14T13:12:32.190Z,53.61
2022-08-14T13:15:08.971Z,54.29
2022-08-14T13:17:51.107Z,54.39
2022-08-14T13:20:23.340Z,54.15
2022-08-14T13:22:53.134Z,54.25
2022-08-14T13:25:24.603Z,54.20
2022-08-14T13:27:55.843Z,54.52
2022-08-14T13:30:24.607Z,55.29
2022-08-14T13:32:57.697Z,55.73
2022-08-14T13:35:25.365Z,55.89
2022-08-14T13:37:53.712Z,55.94
2022-08-14T13:40:26.346Z,56.23
2022-08-14T13:42:56.673Z,56.61
2022-08-14T13:45:59.307Z,57.08
2022-08-14T13:48:18.298Z,57.61
2022-08-14T13:50:56.042Z,58.49
2022-08-14T13:53:23.726Z,59.31
2022-08-14T13:55:52.282Z,59.72
2022-08-14T13:58:30.453Z,60.35
2022-08-14T14:01:01.398Z,60.84
2022-08-14T14:03:30.458Z,61.09
2022-08-14T14:05:58.724Z,61.08
2022-08-14T14:08:45.840Z,60.89
2022-08-14T14:11:14.278Z,60.58
2022-08-14T14:13:45.214Z,60.02
2022-08-14T14:16:14.825Z,59.00
2022-08-14T14:18:43.966Z,58.59
2022-08-14T14:21:13.411Z,58.15
2022-08-14T14:23:41.399Z,58.17
2022-08-14T14:26:13.874Z,58.14
2022-08-14T14:28:41.685Z,58.44
2022-08-14T14:31:09.474Z,58.81
2022-08-14T14:33:52.086Z,59.27
2022-08-14T14:36:26.640Z,60.22
2022-08-14T14:39:02.844Z,60.84
2022-08-14T14:41:38.105Z,61.55
2022-08-14T14:44:06.686Z,61.85
2022-08-14T14:46:37.311Z,62.39
2022-08-14T14:49:06.106Z,62.92
2022-08-14T14:51:34.595Z,62.77
2022-08-14T14:54:02.208Z,62.46
2022-08-14T14:56:49.837Z,62.23
2022-08-14T14:59:18.122Z,62.02
2022-08-14T15:01:49.035Z,61.59
2022-08-14T15:04:20.299Z,61.50
2022-08-14T15:06:48.653Z,61.58
2022-08-14T15:09:17.657Z,61.24
2022-08-14T15:11:45.982Z,61.19
2022-08-14T15:14:55.530Z,61.38
2022-08-14T15:17:48.518Z,60.79
2022-08-14T15:20:30.093Z,60.96
2022-08-14T15:22:57.820Z,60.92
2022-08-14T15:25:24.820Z,60.78
2022-08-14T15:27:54.679Z,60.44
2022-08-14T15:30:23.627Z,60.29
2022-08-14T15:32:51.825Z,60.07
2022-08-14T15:35:22.384Z,59.76
2022-08-14T15:37:55.646Z,59.60
2022-08-14T15:40:23.453Z,59.53
2022-08-14T15:42:50.272Z,59.56
2022-08-14T15:45:17.266Z,59.57
2022-08-14T15:47:44.336Z,59.67
2022-08-14T15:50:13.189Z,59.50
2022-08-14T15:52:43.258Z,59.29
2022-08-14T15:55:14.704Z,59.24
2022-08-14T15:58:01.951Z,59.19
2022-08-14T16:00:51.970Z,59.04
2022-08-14T16:03:26.966Z,59.27
2022-08-14T16:06:01.240Z,59.41
2022-08-14T16:08:30.094Z,59.54
2022-08-14T16:10:58.770Z,59.25
2022-08-14T16:13:39.244Z,59.28
2022-08-14T16:16:47.163Z,59.21
2022-08-14T16:19:00.925Z,59.54
2022-08-14T16:21:31.589Z,59.68
2022-08-14T16:23:59.924Z,59.56
2022-08-14T16:26:30.052Z,60.04
2022-08-14T16:29:07.600Z,59.99
2022-08-14T16:31:43.044Z,60.24
2022-08-14T16:34:45.847Z,60.37
2022-08-14T16:37:01.511Z,60.67
2022-08-14T16:39:28.890Z,60.69
2022-08-14T16:41:58.127Z,60.96
2022-08-14T16:44:33.557Z,61.25
2022-08-14T16:47:02.512Z,61.39
2022-08-14T16:50:03.250Z,61.67
2022-08-14T16:52:25.666Z,61.89
2022-08-14T16:55:09.819Z,62.26
2022-08-14T16:58:08.883Z,62.21
2022-08-14T17:00:43.391Z,62.43
2022-08-14T17:03:12.057Z,62.67
2022-08-14T17:05:41.754Z,62.90
2022-08-14T17:08:31.849Z,63.04
2022-08-14T17:11:00.669Z,63.40
2022-08-14T17:13:58.009Z,63.58
2022-08-14T17:16:24.948Z,63.99
2022-08-14T17:19:00.782Z,64.23
2022-08-14T17:21:38.454Z,64.48
2022-08-14T17:24:57.434Z,64.70
2022-08-14T17:27:04.279Z,64.84
2022-08-14T17:29:33.857Z,65.01
2022-08-14T17:32:07.179Z,65.43
2022-08-14T17:34:50.990Z,65.56
2022-08-14T17:37:29.488Z,65.80
2022-08-14T17:40:15.166Z,66.22
2022-08-14T17:45:38.744Z,67.02
2022-08-14T17:49:10.501Z,66.95
2022-08-14T17:51:24.036Z,67.35
2022-08-14T17:54:02.522Z,67.56
2022-08-14T17:56:33.559Z,67.79
2022-08-14T17:59:02.419Z,67.94
2022-08-14T18:01:31.117Z,68.27
2022-08-14T18:03:58.778Z,68.38
2022-08-14T18:06:39.922Z,68.69
2022-08-14T18:09:25.122Z,68.87
2022-08-14T18:12:03.532Z,69.25
2022-08-14T18:14:33.205Z,69.33
2022-08-14T18:17:15.914Z,69.50
2022-08-14T18:19:43.800Z,69.76
2022-08-14T18:22:31.929Z,69.99
2022-08-14T18:24:58.882Z,70.07
2022-08-14T18:27:36.409Z,70.16
2022-08-14T18:30:36.370Z,70.34
2022-08-14T18:32:55.080Z,70.56
2022-08-14T18:35:56.726Z,70.70
2022-08-14T18:38:46.267Z,70.77
2022-08-14T18:41:36.257Z,71.00
2022-08-14T18:44:10.716Z,71.10
2022-08-14T18:47:15.957Z,71.24
2022-08-14T18:49:55.551Z,71.53
2022-08-14T18:52:34.429Z,71.47
2022-08-14T18:55:20.827Z,71.57
2022-08-14T18:58:07.700Z,71.56
2022-08-14T19:00:52.099Z,71.67
2022-08-14T19:03:18.851Z,71.81
2022-08-14T19:05:49.594Z,71.75
2022-08-14T19:08:22.168Z,71.68
2022-08-14T19:11:03.921Z,71.74
2022-08-14T19:13:48.760Z,71.67
2022-08-14T19:16:22.938Z,71.60
2022-08-14T19:18:54.556Z,71.65
2022-08-14T19:21:34.828Z,71.46
2022-08-14T19:24:30.220Z,71.76
2022-08-14T19:27:24.252Z,71.62
2022-08-14T19:30:20.311Z,71.76
2022-08-14T19:32:50.778Z,71.38
2022-08-14T19:35:43.680Z,71.22
2022-08-14T19:38:47.767Z,71.21
2022-08-14T19:41:18.897Z,71.07
2022-08-14T19:43:55.367Z,70.82
2022-08-14T19:46:38.831Z,70.60
2022-08-14T19:49:14.106Z,70.63
2022-08-14T19:51:48.913Z,70.38
2022-08-14T19:54:15.889Z,70.14
2022-08-14T19:56:45.182Z,70.14
2022-08-14T19:59:17.198Z,69.83
2022-08-14T20:01:44.890Z,69.68
2022-08-14T20:04:45.237Z,69.56
2022-08-14T20:07:02.144Z,69.54
2022-08-14T20:11:03.116Z,69.57
2022-08-14T20:12:34.506Z,69.57
2022-08-14T20:15:15.466Z,69.61
2022-08-14T20:17:52.770Z,69.51
2022-08-14T20:20:32.007Z,69.72
2022-08-14T20:23:11.413Z,69.66
2022-08-14T20:25:55.764Z,69.62
2022-08-14T20:28:30.756Z,69.65
2022-08-14T20:31:18.727Z,69.67
2022-08-14T20:34:24.863Z,69.73
2022-08-14T20:37:22.429Z,69.92
2022-08-14T20:39:54.189Z,70.00
2022-08-14T20:42:49.567Z,70.24
2022-08-14T20:45:20.012Z,70.28
2022-08-14T20:48:01.250Z,70.06
2022-08-14T20:50:29.608Z,70.22
2022-08-14T20:52:57.591Z,70.24
2022-08-14T20:55:29.687Z,70.16
2022-08-14T20:57:57.722Z,70.29
2022-08-14T21:00:36.862Z,70.37
2022-08-14T21:03:30.145Z,70.50
2022-08-14T21:05:58.664Z,70.58
2022-08-14T21:08:26.033Z,70.67
2022-08-14T21:10:56.575Z,70.78
2022-08-14T21:14:08.894Z,70.88
2022-08-14T21:16:33.293Z,71.03
2022-08-14T21:18:58.855Z,71.14
2022-08-14T21:21:41.714Z,71.39
2022-08-14T21:24:39.009Z,71.69
2022-08-14T21:27:04.527Z,71.82
2022-08-14T21:29:41.139Z,71.94
2022-08-14T21:32:34.033Z,72.17
2022-08-14T21:35:08.502Z,72.18
2022-08-14T21:37:45.093Z,72.29
2022-08-14T21:40:18.685Z,72.42
2022-08-14T21:42:59.829Z,72.42
2022-08-14T21:45:26.638Z,72.72
2022-08-14T21:47:56.443Z,72.81
2022-08-14T21:50:39.771Z,72.90
2022-08-14T21:53:11.335Z,72.89
2022-08-14T21:55:38.142Z,73.17
2022-08-14T21:58:53.086Z,73.16
2022-08-14T22:00:51.848Z,73.21
2022-08-14T22:03:24.193Z,73.35
2022-08-14T22:05:52.604Z,73.34
2022-08-14T22:08:21.538Z,73.23
2022-08-14T22:10:53.495Z,73.24
2022-08-14T22:13:21.628Z,73.30
2022-08-14T22:15:52.450Z,73.33
2022-08-14T22:18:25.475Z,73.35
2022-08-14T22:20:53.899Z,73.37
2022-08-14T22:23:24.004Z,73.46
2022-08-14T22:25:51.229Z,73.51
2022-08-14T22:28:23.016Z,73.58
2022-08-14T22:30:55.293Z,73.69
2022-08-14T22:33:26.674Z,73.71
2022-08-14T22:35:58.589Z,73.82
2022-08-14T22:38:35.448Z,74.03
2022-08-14T22:41:26.796Z,74.11
2022-08-14T22:43:53.741Z,74.31
2022-08-14T22:46:21.118Z,74.38
2022-08-14T22:48:48.117Z,74.44
2022-08-14T22:51:16.093Z,74.46
2022-08-14T22:53:45.246Z,74.48
2022-08-14T22:56:20.627Z,74.53
2022-08-14T22:58:53.935Z,74.58
2022-08-14T23:01:56.356Z,74.55
2022-08-14T23:04:35.968Z,74.58
2022-08-14T23:07:22.036Z,74.57
2022-08-14T23:09:56.580Z,74.53
2022-08-14T23:12:29.677Z,74.64
2022-08-14T23:15:00.285Z,74.81
2022-08-14T23:17:39.492Z,74.78
2022-08-14T23:20:18.535Z,74.79
2022-08-14T23:22:47.758Z,74.85
2022-08-14T23:25:14.978Z,74.82
2022-08-14T23:28:02.929Z,74.91
2022-08-14T23:30:34.634Z,74.98
2022-08-14T23:33:02.025Z,75.09
2022-08-14T23:35:28.745Z,75.09
2022-08-14T23:38:01.742Z,75.11
2022-08-14T23:40:30.162Z,75.14
2022-08-14T23:43:09.283Z,75.15
2022-08-14T23:45:39.320Z,75.13
2022-08-14T23:48:12.445Z,75.03
2022-08-14T23:50:40.084Z,74.89
2022-08-14T23:53:48.352Z,74.80
2022-08-14T23:56:32.026Z,74.60
2022-08-14T23:59:01.061Z,74.53
